Time;durP1;ratioP1;P1;durP2;ratioP2;P2;SDS_P1;SDS_P2;PMS_P1;PMS_P2;Temp;Humidity;BMP_temperature;BMP_pressure;BME280_temperature;BME280_humidity;BME280_pressure;Samples;Min_cycle;Max_cycle;Signal;HPM_P1;HPM_P2
2022/10/16 00:02:08;;;;;;;;;9.00;7.00;;;;;22.25;57.47;100701.42;105231;1295;23181;-56
2022/10/16 00:04:35;;;;;;;;;10.00;6.00;;;;;22.24;57.12;100698.98;105232;1291;24074;-55
2022/10/16 00:07:03;;;;;;;;;6.00;6.00;;;;;22.24;57.25;100699.98;105281;1285;20764;-57
2022/10/16 00:09:30;;;;;;;;;6.00;6.00;;;;;22.25;57.27;100699.88;105297;1278;18726;-53
2022/10/16 00:11:57;;;;;;;;;8.00;6.50;;;;;22.25;57.11;100704.33;105267;1300;27248;-53
2022/10/16 00:14:24;;;;;;;;;7.00;6.00;;;;;22.24;57.21;100710.86;105335;1300;21031;-56
2022/10/16 00:16:51;;;;;;;;;9.00;7.00;;;;;22.23;57.30;100715.88;105220;1285;19582;-55
2022/10/16 00:19:19;;;;;;;;;7.00;6.00;;;;;22.23;57.30;100716.80;105258;1284;22649;-58
2022/10/16 00:21:46;;;;;;;;;9.00;7.00;;;;;22.24;57.39;100719.84;105311;1300;19303;-57
2022/10/16 00:24:13;;;;;;;;;7.00;7.00;;;;;22.23;57.30;100723.31;105291;1295;19652;-56
2022/10/16 00:26:40;;;;;;;;;7.50;6.50;;;;;22.23;57.31;100729.33;105233;1285;22536;-55
2022/10/16 00:29:08;;;;;;;;;10.00;9.50;;;;;22.24;57.24;100730.18;105244;1300;21090;-56
2022/10/16 00:31:35;;;;;;;;;9.00;7.67;;;;;22.24;57.14;100728.33;105202;1287;18550;-55
2022/10/16 00:34:02;;;;;;;;;10.50;9.00;;;;;22.24;57.07;100728.19;105095;1307;18836;-56
2022/10/16 00:36:30;;;;;;;;;6.50;6.50;;;;;22.24;57.09;100726.70;105125;1291;20993;-56
2022/10/16 00:38:59;;;;;;;;;6.00;6.00;;;;;22.24;57.02;100721.81;105257;1285;22417;-58
2022/10/16 00:41:26;;;;;;;;;9.00;8.00;;;;;22.23;57.03;100728.10;105238;1299;18663;-57
2022/10/16 00:43:53;;;;;;;;;9.00;6.00;;;;;22.23;57.19;100725.33;105263;1293;20879;-55
2022/10/16 00:46:21;;;;;;;;;7.00;6.50;;;;;22.23;57.01;100724.61;105313;1300;20415;-56
2022/10/16 00:48:48;;;;;;;;;8.00;8.00;;;;;22.23;57.14;100728.30;105302;1308;22263;-56
2022/10/16 00:51:15;;;;;;;;;8.50;8.00;;;;;22.23;57.02;100742.09;105262;1285;20908;-54
2022/10/16 00:53:42;;;;;;;;;10.00;7.00;;;;;22.24;57.13;100746.77;105283;1285;18477;-55
2022/10/16 00:56:10;;;;;;;;;7.00;7.00;;;;;22.23;56.93;100745.38;105262;1299;18543;-54
2022/10/16 00:58:37;;;;;;;;;;;;;;;22.22;56.89;100739.25;105217;1285;20900;-55
2022/10/16 01:01:04;;;;;;;;;7.00;7.00;;;;;22.23;57.05;100735.77;105292;1284;19855;-56
2022/10/16 01:03:31;;;;;;;;;13.00;11.00;;;;;22.22;56.92;100735.27;105261;1294;20070;-54
2022/10/16 01:05:59;;;;;;;;;9.00;9.00;;;;;22.23;57.04;100736.46;105291;1291;22255;-56
2022/10/16 01:08:26;;;;;;;;;;;;;;;22.23;56.90;100735.22;105291;1300;18525;-58
2022/10/16 01:10:54;;;;;;;;;7.00;7.00;;;;;22.22;56.87;100731.14;105278;1285;18407;-53
2022/10/16 01:13:21;;;;;;;;;5.00;5.00;;;;;22.22;57.04;100730.25;105284;1303;19328;-59
2022/10/16 01:15:48;;;;;;;;;11.00;9.00;;;;;22.21;57.14;100732.32;105272;1294;19606;-55
2022/10/16 01:18:16;;;;;;;;;6.50;6.50;;;;;22.22;57.01;100736.53;105267;1285;22180;-55
2022/10/16 01:20:43;;;;;;;;;10.00;9.00;;;;;22.22;56.95;100738.23;105282;1300;19168;-53
2022/10/16 01:23:10;;;;;;;;;9.00;7.00;;;;;22.22;56.79;100739.70;105283;1284;19965;-55
2022/10/16 01:25:38;;;;;;;;;11.00;10.00;;;;;22.22;57.02;100748.41;105279;1306;22724;-54
2022/10/16 01:28:05;;;;;;;;;9.00;9.00;;;;;22.22;56.95;100749.13;105283;1287;22121;-56
2022/10/16 01:30:32;;;;;;;;;;;;;;;22.22;57.00;100748.20;105261;1285;18504;-57
2022/10/16 01:32:59;;;;;;;;;;;;;;;22.23;56.88;100741.45;105315;1284;20035;-57
2022/10/16 01:35:27;;;;;;;;;9.00;7.00;;;;;22.24;56.84;100743.14;105302;1300;20752;-55
2022/10/16 01:37:54;;;;;;;;;9.00;7.00;;;;;22.24;56.88;100759.27;105243;1300;19716;-55
2022/10/16 01:40:21;;;;;;;;;10.00;9.00;;;;;22.23;56.87;100759.96;105286;1302;18492;-59
2022/10/16 01:42:48;;;;;;;;;7.00;6.00;;;;;22.23;56.75;100748.29;105319;1285;19327;-56
2022/10/16 01:45:17;;;;;;;;;7.00;7.00;;;;;22.22;56.91;100755.67;105287;1300;18725;-55
2022/10/16 01:47:45;;;;;;;;;7.00;7.00;;;;;22.22;56.88;100750.59;105245;1297;30834;-56
2022/10/16 01:50:12;;;;;;;;;6.00;6.00;;;;;22.21;56.84;100753.02;105274;1285;20777;-56
2022/10/16 01:52:39;;;;;;;;;7.00;7.00;;;;;22.22;56.78;100757.35;105279;1281;18557;-56
2022/10/16 01:55:07;;;;;;;;;6.50;6.50;;;;;22.21;56.80;100762.35;105278;1301;18640;-56
2022/10/16 01:57:34;;;;;;;;;7.00;7.00;;;;;22.21;56.81;100763.06;105242;1299;19268;-56
2022/10/16 02:00:01;;;;;;;;;9.00;9.00;;;;;22.22;56.75;100765.75;105257;1285;18510;-57
2022/10/16 02:02:29;;;;;;;;;;;;;;;22.21;56.75;100764.70;105268;1285;22675;-56
2022/10/16 02:04:56;;;;;;;;;9.00;7.00;;;;;22.21;56.88;100767.09;105288;1284;19270;-57
2022/10/16 02:07:23;;;;;;;;;6.00;6.00;;;;;22.21;56.78;100764.70;105279;1301;18385;-54
2022/10/16 02:09:51;;;;;;;;;6.00;6.00;;;;;22.22;56.76;100762.86;105333;1285;20541;-55
2022/10/16 02:12:18;;;;;;;;;7.00;6.00;;;;;22.21;56.87;100757.67;105253;1285;19308;-53
2022/10/16 02:14:45;;;;;;;;;5.00;5.00;;;;;22.21;56.79;100758.52;105285;1285;18378;-55
2022/10/16 02:17:12;;;;;;;;;6.50;6.50;;;;;22.21;57.00;100755.80;105257;1293;18661;-54
2022/10/16 02:19:40;;;;;;;;;6.00;5.00;;;;;22.21;56.79;100753.95;105265;1301;22850;-55
2022/10/16 02:22:07;;;;;;;;;6.00;6.00;;;;;22.21;56.95;100747.48;105329;1303;18499;-56
2022/10/16 02:24:34;;;;;;;;;5.00;5.00;;;;;22.21;56.77;100749.96;105244;1284;18569;-54
2022/10/16 02:27:01;;;;;;;;;9.00;6.00;;;;;22.22;56.94;100750.42;105253;1294;19257;-57
2022/10/16 02:29:29;;;;;;;;;6.50;6.00;;;;;22.22;57.03;100749.70;105282;1292;19685;-54
2022/10/16 02:31:56;;;;;;;;;9.00;9.00;;;;;22.22;56.77;100751.34;105254;1285;20328;-55
2022/10/16 02:34:23;;;;;;;;;6.00;6.00;;;;;22.22;56.80;100749.50;105215;1303;19332;-56
2022/10/16 02:36:50;;;;;;;;;6.00;5.00;;;;;22.23;56.88;100752.66;105293;1295;19938;-54
2022/10/16 02:39:18;;;;;;;;;;;;;;;22.22;56.95;100748.45;105274;1285;18527;-57
2022/10/16 02:41:45;;;;;;;;;9.00;9.00;;;;;22.23;56.79;100750.89;105300;1300;20251;-55
2022/10/16 02:44:12;;;;;;;;;9.00;7.00;;;;;22.22;56.84;100753.63;105291;1295;19651;-56
2022/10/16 02:46:40;;;;;;;;;5.00;5.00;;;;;22.23;56.83;100758.38;105223;1303;20591;-57
2022/10/16 02:49:07;;;;;;;;;10.00;9.00;;;;;22.22;56.84;100752.27;105292;1297;21035;-56
2022/10/16 02:51:34;;;;;;;;;5.00;5.00;;;;;22.22;56.87;100749.84;105301;1300;18756;-55
2022/10/16 02:54:02;;;;;;;;;10.00;7.00;;;;;22.21;56.90;100748.69;105253;1294;20079;-56
2022/10/16 02:56:29;;;;;;;;;6.00;6.00;;;;;22.22;56.75;100747.83;105282;1295;19696;-56
2022/10/16 02:58:57;;;;;;;;;9.00;6.50;;;;;22.22;56.97;100744.59;105236;1300;19064;-56
2022/10/16 03:01:24;;;;;;;;;6.50;6.00;;;;;22.22;57.01;100749.13;105289;1294;19987;-57
2022/10/16 03:03:51;;;;;;;;;6.00;5.00;;;;;22.22;56.79;100750.59;105270;1281;21142;-57
2022/10/16 03:06:18;;;;;;;;;6.00;5.50;;;;;22.22;56.98;100751.31;105275;1292;18634;-55
2022/10/16 03:08:46;;;;;;;;;5.00;5.00;;;;;22.21;57.09;100745.63;105250;1284;20260;-52
2022/10/16 03:11:13;;;;;;;;;5.00;5.00;;;;;22.20;56.99;100745.23;105234;1300;19674;-53
2022/10/16 03:13:40;;;;;;;;;6.00;6.00;;;;;22.21;56.83;100745.45;105203;1291;100497;-55
2022/10/16 03:16:07;;;;;;;;;7.00;6.00;;;;;22.20;56.87;100744.68;105217;1285;19197;-56
2022/10/16 03:18:35;;;;;;;;;9.00;7.00;;;;;22.20;56.88;100747.17;105098;1301;21026;-56
2022/10/16 03:21:02;;;;;;;;;7.00;6.00;;;;;22.21;56.97;100742.02;105234;1292;19709;-53
2022/10/16 03:23:29;;;;;;;;;7.00;7.00;;;;;22.21;57.00;100748.60;105261;1295;19757;-55
2022/10/16 03:25:56;;;;;;;;;7.00;6.00;;;;;22.21;56.92;100745.11;105247;1294;20818;-56
2022/10/16 03:28:24;;;;;;;;;6.50;6.00;;;;;22.21;56.80;100750.23;105294;1285;18411;-59
2022/10/16 03:30:51;;;;;;;;;10.00;7.00;;;;;22.21;56.77;100753.61;105287;1301;18505;-56
2022/10/16 03:33:18;;;;;;;;;6.50;6.00;;;;;22.22;56.64;100759.33;105262;1278;20918;-55
2022/10/16 03:35:45;;;;;;;;;9.00;9.00;;;;;22.20;56.81;100757.38;105266;1306;20322;-56
2022/10/16 03:38:13;;;;;;;;;10.00;9.00;;;;;22.20;56.75;100755.91;105275;1285;20267;-52
2022/10/16 03:40:40;;;;;;;;;7.00;7.00;;;;;22.20;56.72;100760.99;105296;1291;19819;-55
2022/10/16 03:43:07;;;;;;;;;7.00;7.00;;;;;22.21;56.79;100761.50;105272;1303;22769;-56
2022/10/16 03:45:34;;;;;;;;;7.00;6.00;;;;;22.21;56.79;100763.85;105285;1300;18635;-56
2022/10/16 03:48:03;;;;;;;;;7.00;7.00;;;;;22.21;56.72;100764.61;105211;1278;20716;-55
2022/10/16 03:50:30;;;;;;;;;11.00;7.00;;;;;22.20;56.83;100770.32;105276;1277;23122;-53
2022/10/16 03:52:57;;;;;;;;;8.50;7.00;;;;;22.20;56.86;100768.13;105267;1300;18558;-53
2022/10/16 03:55:24;;;;;;;;;9.00;9.00;;;;;22.21;56.80;100770.61;105282;1306;19408;-55
2022/10/16 03:57:52;;;;;;;;;6.00;6.00;;;;;22.21;56.73;100772.17;105271;1303;18542;-56
2022/10/16 04:00:19;;;;;;;;;7.00;6.00;;;;;22.21;56.60;100769.66;105279;1300;23853;-57
2022/10/16 04:02:46;;;;;;;;;9.00;7.00;;;;;22.22;56.56;100762.65;105271;1285;19486;-53
2022/10/16 04:05:13;;;;;;;;;9.00;7.00;;;;;22.21;56.53;100764.87;105284;1284;18961;-56
2022/10/16 04:07:41;;;;;;;;;6.00;6.00;;;;;22.21;56.62;100767.42;105261;1293;19946;-57
2022/10/16 04:10:08;;;;;;;;;9.00;7.00;;;;;22.21;56.75;100774.98;105302;1300;23234;-58
2022/10/16 04:12:35;;;;;;;;;7.00;6.00;;;;;22.21;56.48;100772.72;105296;1300;19673;-56
2022/10/16 04:15:02;;;;;;;;;6.00;6.00;;;;;22.20;56.58;100781.58;105309;1288;18549;-54
2022/10/16 04:17:29;;;;;;;;;5.50;5.00;;;;;22.20;56.67;100783.25;105286;1284;21480;-54
2022/10/16 04:19:57;;;;;;;;;7.00;6.00;;;;;22.20;56.65;100787.95;105244;1303;23720;-55
2022/10/16 04:22:24;;;;;;;;;6.00;5.50;;;;;22.21;56.48;100791.15;105248;1294;20425;-57
2022/10/16 04:24:51;;;;;;;;;6.00;5.50;;;;;22.20;56.60;100798.58;105244;1278;19598;-55
2022/10/16 04:27:18;;;;;;;;;10.00;7.00;;;;;22.20;56.67;100791.81;105152;1285;22417;-56
2022/10/16 04:29:46;;;;;;;;;3.00;3.00;;;;;22.20;56.69;100782.91;105182;1294;20009;-55
2022/10/16 04:32:13;;;;;;;;;5.00;5.00;;;;;22.19;56.65;100784.21;105225;1300;19349;-54
2022/10/16 04:34:40;;;;;;;;;7.00;7.00;;;;;22.19;56.65;100782.52;105180;1295;22621;-55
2022/10/16 04:37:07;;;;;;;;;7.00;6.00;;;;;22.18;56.72;100787.46;105327;1307;22131;-55
2022/10/16 04:39:34;;;;;;;;;8.00;8.00;;;;;22.18;56.67;100780.16;105280;1278;19319;-56
2022/10/16 04:42:02;;;;;;;;;8.50;8.00;;;;;22.19;56.60;100784.33;105265;1285;18441;-56
2022/10/16 04:44:29;;;;;;;;;9.00;7.00;;;;;22.19;56.47;100790.52;105270;1303;18714;-56
2022/10/16 04:46:56;;;;;;;;;7.00;7.00;;;;;22.19;56.54;100787.91;105300;1301;19276;-55
2022/10/16 04:49:24;;;;;;;;;7.00;7.00;;;;;22.19;56.58;100785.34;105260;1287;19772;-56
2022/10/16 04:51:51;;;;;;;;;6.00;6.00;;;;;22.19;56.65;100791.77;105265;1290;22746;-56
2022/10/16 04:54:18;;;;;;;;;;;;;;;22.20;56.51;100791.83;105216;1303;19327;-56
2022/10/16 04:56:47;;;;;;;;;6.50;6.00;;;;;22.20;56.56;100798.54;105238;1303;18249;-58
2022/10/16 04:59:15;;;;;;;;;7.00;7.00;;;;;22.22;56.40;100805.44;105238;1285;22809;-51
2022/10/16 05:01:42;;;;;;;;;7.00;6.00;;;;;22.22;56.54;100802.85;105239;1285;20966;-57
2022/10/16 05:04:09;;;;;;;;;;;;;;;22.22;56.46;100803.94;105309;1285;18336;-55
2022/10/16 05:06:36;;;;;;;;;6.00;6.00;;;;;22.22;56.32;100812.29;105225;1308;20216;-54
2022/10/16 05:09:03;;;;;;;;;6.00;6.00;;;;;22.23;56.43;100811.13;105179;1285;22379;-52
2022/10/16 05:11:31;;;;;;;;;7.00;7.00;;;;;22.23;56.49;100814.52;105230;1277;19685;-55
2022/10/16 05:13:58;;;;;;;;;6.00;6.00;;;;;22.23;56.41;100809.80;105248;1282;18731;-57
2022/10/16 05:16:25;;;;;;;;;6.50;6.50;;;;;22.23;56.48;100814.20;105291;1303;21066;-55
2022/10/16 05:18:52;;;;;;;;;6.00;6.00;;;;;22.23;56.47;100817.98;105136;1300;22523;-54
2022/10/16 05:21:20;;;;;;;;;6.00;6.00;;;;;22.23;56.57;100818.90;105257;1293;18721;-54
2022/10/16 05:23:47;;;;;;;;;7.00;7.00;;;;;22.23;56.58;100828.36;105252;1288;20741;-57
2022/10/16 05:26:14;;;;;;;;;7.00;6.50;;;;;22.24;56.50;100829.76;105285;1277;18398;-56
2022/10/16 05:28:42;;;;;;;;;10.50;8.00;;;;;22.24;56.44;100829.90;105281;1300;22721;-56
2022/10/16 05:31:09;;;;;;;;;5.50;5.50;;;;;22.23;56.39;100836.25;105278;1291;20813;-57
2022/10/16 05:33:36;;;;;;;;;7.00;7.00;;;;;22.23;56.49;100840.45;105251;1300;18516;-55
2022/10/16 05:36:03;;;;;;;;;7.00;7.00;;;;;22.22;56.57;100843.21;105242;1300;18763;-57
2022/10/16 05:38:31;;;;;;;;;18.00;17.00;;;;;22.20;56.64;100844.06;105274;1301;20749;-58
2022/10/16 05:40:58;;;;;;;;;24.00;18.00;;;;;22.16;56.49;100855.20;105258;1299;22629;-55
2022/10/16 05:43:25;;;;;;;;;18.00;17.00;;;;;22.12;56.19;100855.73;105327;1294;20192;-57
2022/10/16 05:45:52;;;;;;;;;14.00;13.50;;;;;22.08;56.08;100856.15;105295;1284;22106;-54
2022/10/16 05:48:20;;;;;;;;;18.00;17.00;;;;;22.03;55.82;100854.33;105232;1300;18670;-56
2022/10/16 05:50:47;;;;;;;;;15.00;14.00;;;;;22.01;55.86;100847.55;105221;1281;20177;-56
2022/10/16 05:53:14;;;;;;;;;19.00;19.00;;;;;22.02;55.69;100846.88;105191;1285;20832;-55
2022/10/16 05:55:41;;;;;;;;;25.00;22.00;;;;;21.99;55.48;100849.20;105244;1284;20286;-56
2022/10/16 05:58:09;;;;;;;;;23.00;18.00;;;;;21.98;55.49;100859.34;105201;1284;25277;-56
2022/10/16 06:00:36;;;;;;;;;17.00;17.00;;;;;21.96;55.39;100864.15;105210;1285;19284;-58
2022/10/16 06:03:04;;;;;;;;;16.00;15.00;;;;;21.94;55.43;100866.90;105246;1300;20430;-59
2022/10/16 06:05:32;;;;;;;;;15.00;15.00;;;;;21.97;55.40;100871.52;105228;1278;18778;-56
2022/10/16 06:07:59;;;;;;;;;15.00;14.00;;;;;21.99;55.54;100871.42;105218;1291;22218;-57
2022/10/16 06:10:26;;;;;;;;;12.00;12.00;;;;;22.01;55.48;100876.05;105302;1285;18491;-58
2022/10/16 06:12:53;;;;;;;;;15.50;14.00;;;;;22.04;55.63;100870.12;105276;1278;20433;-56
2022/10/16 06:15:21;;;;;;;;;15.00;13.00;;;;;22.06;55.46;100865.64;105215;1295;19156;-55
2022/10/16 06:17:48;;;;;;;;;13.50;10.50;;;;;22.09;55.38;100861.88;105254;1285;18768;-56
2022/10/16 06:20:15;;;;;;;;;10.00;9.00;;;;;22.14;55.76;100859.16;105236;1303;18606;-55
2022/10/16 06:22:42;;;;;;;;;;;;;;;22.14;55.68;100858.20;105143;1301;19646;-58
2022/10/16 06:25:10;;;;;;;;;7.00;7.00;;;;;22.14;55.69;100858.55;105224;1285;22476;-54
2022/10/16 06:27:37;;;;;;;;;9.00;9.00;;;;;22.17;55.67;100860.80;105255;1278;20084;-55
2022/10/16 06:30:04;;;;;;;;;;;;;;;22.21;55.61;100863.98;105233;1286;21088;-57
2022/10/16 06:32:31;;;;;;;;;11.00;10.00;;;;;22.25;55.60;100863.30;105256;1284;19784;-56
2022/10/16 06:34:59;;;;;;;;;9.00;9.00;;;;;22.28;55.63;100866.13;105198;1303;18585;-55
2022/10/16 06:37:26;;;;;;;;;;;;;;;22.34;55.70;100869.67;105196;1284;19922;-57
2022/10/16 06:39:53;;;;;;;;;;;;;;;22.38;55.90;100868.20;105195;1284;18430;-53
2022/10/16 06:42:20;;;;;;;;;6.50;6.50;;;;;22.40;56.06;100870.87;105174;1285;19767;-58
2022/10/16 06:44:48;;;;;;;;;9.00;8.00;;;;;22.40;56.18;100871.75;105204;1285;19809;-54
2022/10/16 06:47:15;;;;;;;;;10.00;10.00;;;;;22.41;56.27;100871.17;105197;1284;18523;-56
2022/10/16 06:49:42;;;;;;;;;9.00;9.00;;;;;22.41;56.45;100873.16;105227;1301;20492;-56
2022/10/16 06:52:09;;;;;;;;;10.50;9.50;;;;;22.41;56.62;100874.79;105261;1300;20789;-57
2022/10/16 06:54:37;;;;;;;;;8.00;7.00;;;;;22.42;57.02;100885.41;105202;1301;20210;-55
2022/10/16 06:57:04;;;;;;;;;9.00;7.00;;;;;22.41;56.82;100889.73;105244;1300;22224;-58
2022/10/16 06:59:31;;;;;;;;;9.50;7.00;;;;;22.41;57.00;100897.77;105227;1291;19514;-55
2022/10/16 07:01:58;;;;;;;;;9.50;8.50;;;;;22.44;57.24;100896.14;105202;1286;19624;-56
2022/10/16 07:04:26;;;;;;;;;10.00;9.00;;;;;22.42;57.28;100898.15;105224;1291;18862;-57
2022/10/16 07:06:53;;;;;;;;;7.00;7.00;;;;;22.42;57.22;100900.33;105244;1293;21024;-55
2022/10/16 07:09:20;;;;;;;;;10.00;10.00;;;;;22.42;57.45;100905.62;105205;1303;18532;-56
2022/10/16 07:11:48;;;;;;;;;9.00;7.00;;;;;22.41;57.49;100903.04;105228;1301;20330;-56
2022/10/16 07:14:15;;;;;;;;;6.50;6.00;;;;;22.39;57.23;100907.36;105215;1292;20801;-57
2022/10/16 07:16:42;;;;;;;;;7.00;7.00;;;;;22.41;57.58;100905.24;105231;1286;19795;-56
2022/10/16 07:19:11;;;;;;;;;7.00;7.00;;;;;22.42;57.87;100907.05;105195;1301;22601;-56
2022/10/16 07:21:39;;;;;;;;;8.50;7.50;;;;;22.43;57.86;100908.41;105136;1285;21741;-57
2022/10/16 07:24:06;;;;;;;;;9.00;7.00;;;;;22.43;57.86;100907.19;105211;1277;18861;-56
2022/10/16 07:26:33;;;;;;;;;7.00;7.00;;;;;22.41;58.14;100907.77;105223;1277;18807;-57
2022/10/16 07:29:01;;;;;;;;;9.00;7.00;;;;;22.40;58.05;100911.83;105218;1300;21009;-56
2022/10/16 07:31:28;;;;;;;;;7.00;7.00;;;;;22.41;57.77;100907.94;105205;1303;18778;-57
2022/10/16 07:33:55;;;;;;;;;6.00;6.00;;;;;22.41;57.58;100917.77;105210;1284;21156;-56
2022/10/16 07:36:22;;;;;;;;;;;;;;;22.40;57.70;100921.70;105201;1298;20643;-57
2022/10/16 07:38:50;;;;;;;;;6.00;6.00;;;;;22.40;58.21;100920.27;105289;1277;18234;-56
2022/10/16 07:41:17;;;;;;;;;10.00;10.00;;;;;22.40;57.79;100920.02;105268;1279;20061;-57
2022/10/16 07:43:44;;;;;;;;;8.00;7.00;;;;;22.40;58.05;100916.04;105238;1300;19297;-56
2022/10/16 07:46:11;;;;;;;;;6.50;6.50;;;;;22.41;58.11;100932.35;105224;1285;22310;-56
2022/10/16 07:48:39;;;;;;;;;7.00;7.00;;;;;22.40;57.95;100931.50;105190;1300;22635;-58
2022/10/16 07:51:06;;;;;;;;;7.50;6.50;;;;;22.39;57.84;100930.02;105235;1286;20734;-56
2022/10/16 07:53:33;;;;;;;;;6.00;6.00;;;;;22.37;58.10;100935.49;105227;1277;19912;-55
2022/10/16 07:56:00;;;;;;;;;6.00;6.00;;;;;22.37;58.13;100936.38;105221;1284;21405;-56
2022/10/16 07:58:28;;;;;;;;;9.00;7.00;;;;;22.40;58.00;100944.02;105232;1287;22577;-58
2022/10/16 08:00:55;;;;;;;;;6.00;5.00;;;;;22.44;57.89;100942.20;105074;1277;19631;-59
2022/10/16 08:03:22;;;;;;;;;6.00;6.00;;;;;22.48;58.05;100935.71;105133;1283;20518;-57
2022/10/16 08:05:49;;;;;;;;;63.50;48.50;;;;;22.49;57.79;100936.11;105163;1277;20928;-57
2022/10/16 08:08:17;;;;;;;;;124.00;90.00;;;;;22.47;57.85;100938.69;105074;1284;22512;-56
2022/10/16 08:10:44;;;;;;;;;185.00;137.00;;;;;22.48;57.77;100940.27;104999;1285;20423;-55
2022/10/16 08:13:12;;;;;;;;;170.00;129.00;;;;;22.50;57.85;100941.80;105093;1285;21133;-56
2022/10/16 08:15:39;;;;;;;;;;;;;;;22.52;57.80;100951.24;105169;1285;24474;-53
2022/10/16 08:18:07;;;;;;;;;;;;;;;22.52;57.77;100952.84;105156;1278;19837;-56
2022/10/16 08:20:34;;;;;;;;;;;;;;;22.48;57.74;100955.72;105194;1304;19280;-56
2022/10/16 08:23:01;;;;;;;;;109.00;80.00;;;;;22.44;57.70;100959.52;105258;1300;19340;-57
2022/10/16 08:25:28;;;;;;;;;;;;;;;22.40;57.88;100968.99;105284;1300;18861;-58
2022/10/16 08:27:56;;;;;;;;;;;;;;;22.37;57.88;100960.02;105207;1303;21643;-58
2022/10/16 08:30:23;;;;;;;;;71.00;52.00;;;;;22.35;58.27;100961.59;105236;1291;19318;-58
2022/10/16 08:32:50;;;;;;;;;66.00;50.00;;;;;22.38;58.09;100957.84;105259;1300;18928;-53
2022/10/16 08:35:17;;;;;;;;;58.00;43.00;;;;;22.47;58.27;100954.93;105235;1301;19613;-53
2022/10/16 08:37:44;;;;;;;;;55.00;43.00;;;;;22.58;57.96;100950.90;105301;1295;18932;-51
2022/10/16 08:40:12;;;;;;;;;45.00;35.50;;;;;22.65;57.86;100951.64;105284;1302;18621;-55
2022/10/16 08:42:39;;;;;;;;;37.00;31.00;;;;;22.62;58.03;100959.87;105264;1294;19152;-55
2022/10/16 08:45:06;;;;;;;;;30.67;24.33;;;;;22.59;58.11;100958.39;105276;1307;22418;-50
2022/10/16 08:47:33;;;;;;;;;29.00;22.00;;;;;22.58;58.16;100959.45;105245;1291;19082;-53
2022/10/16 08:50:01;;;;;;;;;25.50;21.50;;;;;22.57;58.35;100962.61;105187;1285;22519;-57
2022/10/16 08:52:28;;;;;;;;;22.00;21.00;;;;;22.67;57.82;100966.55;105217;1285;22841;-56
2022/10/16 08:54:56;;;;;;;;;20.00;17.00;;;;;22.75;57.98;100964.33;105219;1278;23462;-52
2022/10/16 08:57:23;;;;;;;;;27.00;20.00;;;;;22.79;57.97;100960.37;105242;1285;21002;-53
2022/10/16 08:59:50;;;;;;;;;;;;;;;22.83;57.66;100963.55;105214;1285;18548;-53
2022/10/16 09:02:17;;;;;;;;;;;;;;;22.78;57.62;100959.34;105267;1301;18306;-54
2022/10/16 09:04:45;;;;;;;;;18.00;15.00;;;;;22.77;57.83;100955.12;105196;1279;19634;-53
2022/10/16 09:07:12;;;;;;;;;;;;;;;22.78;57.83;100955.27;105227;1282;22037;-55
2022/10/16 09:09:39;;;;;;;;;;;;;;;22.77;57.71;100955.54;105259;1285;18130;-55
2022/10/16 09:12:06;;;;;;;;;15.00;14.00;;;;;22.73;57.94;100958.79;105116;1277;21071;-55
2022/10/16 09:14:36;;;;;;;;;22.00;17.00;;;;;22.64;58.07;100961.66;105091;1277;18653;-53
2022/10/16 09:17:03;;;;;;;;;20.00;16.00;;;;;22.58;58.25;100959.77;105066;1286;20573;-54
2022/10/16 09:19:31;;;;;;;;;22.00;20.00;;;;;22.56;58.40;100965.31;105123;1301;19317;-55
2022/10/16 09:21:59;;;;;;;;;22.00;18.00;;;;;22.52;58.36;100966.37;105079;1292;20330;-52
2022/10/16 09:24:26;;;;;;;;;18.50;18.50;;;;;22.46;58.56;100960.82;105248;1299;32238;-54
2022/10/16 09:26:53;;;;;;;;;16.00;15.50;;;;;22.43;58.53;100964.67;105242;1299;19296;-52
2022/10/16 09:29:21;;;;;;;;;18.00;16.00;;;;;22.43;58.54;100970.21;105237;1278;20363;-55
2022/10/16 09:31:48;;;;;;;;;19.00;18.50;;;;;22.42;58.60;100969.52;105251;1301;18784;-55
2022/10/16 09:34:18;;;;;;;;;19.00;18.00;;;;;22.41;58.61;100975.54;105244;1285;19286;-53
2022/10/16 09:36:45;;;;;;;;;16.00;14.00;;;;;22.40;58.44;100975.52;105283;1309;18875;-53
2022/10/16 09:39:13;;;;;;;;;17.00;16.00;;;;;22.40;58.65;100971.23;105289;1285;20137;-52
2022/10/16 09:41:40;;;;;;;;;14.00;14.00;;;;;22.39;58.39;100969.17;105294;1279;19284;-55
2022/10/16 09:44:07;;;;;;;;;18.50;17.00;;;;;22.37;58.56;100966.63;105200;1286;19956;-55
2022/10/16 09:46:35;;;;;;;;;14.00;13.00;;;;;22.39;58.58;100970.64;105283;1300;22229;-57
2022/10/16 09:49:02;;;;;;;;;13.00;13.00;;;;;22.40;58.35;100976.70;105299;1300;22202;-54
2022/10/16 09:51:29;;;;;;;;;14.00;14.00;;;;;22.38;58.58;100968.94;105314;1300;20288;-53
2022/10/16 09:53:56;;;;;;;;;15.00;15.00;;;;;22.35;58.50;100965.79;105295;1300;18805;-53
2022/10/16 09:56:24;;;;;;;;;17.00;15.00;;;;;22.34;58.67;100969.55;105267;1298;20963;-57
2022/10/16 09:58:51;;;;;;;;;16.50;15.00;;;;;22.36;58.70;100976.57;105307;1300;18569;-56
2022/10/16 10:01:19;;;;;;;;;13.50;13.50;;;;;22.37;58.53;100977.08;105272;1294;20289;-54
2022/10/16 10:03:46;;;;;;;;;17.00;13.00;;;;;22.37;58.68;100982.30;105256;1300;20943;-56
2022/10/16 10:06:13;;;;;;;;;16.00;14.50;;;;;22.37;58.66;100978.67;105281;1300;18508;-54
2022/10/16 10:08:40;;;;;;;;;15.00;14.00;;;;;22.36;58.54;100976.85;105284;1285;21547;-55
2022/10/16 10:11:08;;;;;;;;;13.00;13.00;;;;;22.33;58.63;100974.65;105235;1293;20961;-55
2022/10/16 10:13:35;;;;;;;;;16.00;14.50;;;;;22.30;58.65;100975.33;105281;1291;20041;-57
2022/10/16 10:16:02;;;;;;;;;13.50;12.00;;;;;22.32;58.68;100975.13;105316;1278;18598;-55
2022/10/16 10:18:31;;;;;;;;;14.00;14.00;;;;;22.33;58.71;100974.09;105285;1292;19326;-53
2022/10/16 10:20:58;;;;;;;;;14.00;13.00;;;;;22.33;58.77;100974.23;105303;1300;22083;-55
2022/10/16 10:23:26;;;;;;;;;13.00;13.00;;;;;22.30;58.82;100972.91;105240;1301;18713;-53
2022/10/16 10:25:53;;;;;;;;;13.00;13.00;;;;;22.28;58.76;100974.09;105287;1293;19299;-55
2022/10/16 10:28:20;;;;;;;;;13.00;13.00;;;;;22.29;58.88;100983.77;105310;1303;18641;-55
2022/10/16 10:30:48;;;;;;;;;14.00;13.50;;;;;22.30;58.82;100990.64;105237;1293;18750;-53
2022/10/16 10:33:15;;;;;;;;;14.00;13.00;;;;;22.28;58.82;100984.50;105249;1296;20960;-55
2022/10/16 10:35:42;;;;;;;;;14.00;13.00;;;;;22.25;58.84;100982.66;105238;1278;18521;-53
2022/10/16 10:38:10;;;;;;;;;10.00;10.00;;;;;22.22;58.99;100980.45;105330;1285;18583;-55
2022/10/16 10:40:37;;;;;;;;;13.00;13.00;;;;;22.25;59.11;100983.44;105285;1308;20855;-55
2022/10/16 10:43:04;;;;;;;;;13.00;10.00;;;;;22.27;58.90;100981.84;105296;1300;18842;-54
2022/10/16 10:45:32;;;;;;;;;11.50;10.50;;;;;22.28;59.16;100972.62;105300;1285;20569;-55
2022/10/16 10:47:59;;;;;;;;;14.00;13.00;;;;;22.28;59.05;100971.77;105300;1294;21038;-54
2022/10/16 10:50:26;;;;;;;;;14.00;11.00;;;;;22.28;59.09;100976.98;105332;1300;18533;-56
2022/10/16 10:52:54;;;;;;;;;13.00;13.00;;;;;22.29;59.07;100986.34;105327;1300;19001;-55
2022/10/16 10:55:22;;;;;;;;;;;;;;;22.30;59.04;100992.99;105281;1294;22805;-53
2022/10/16 10:57:49;;;;;;;;;10.00;10.00;;;;;22.30;58.86;100994.98;105208;1278;20226;-53
2022/10/16 11:00:17;;;;;;;;;10.00;10.00;;;;;22.28;59.12;101005.17;105256;1285;18796;-55
2022/10/16 11:02:44;;;;;;;;;11.00;11.00;;;;;22.30;59.00;101011.05;105269;1285;20952;-54
2022/10/16 11:05:11;;;;;;;;;13.00;11.00;;;;;22.30;58.98;101009.01;105297;1285;20253;-56
2022/10/16 11:07:38;;;;;;;;;12.00;11.00;;;;;22.29;58.90;101012.73;105245;1303;18668;-56
2022/10/16 11:10:06;;;;;;;;;11.00;10.00;;;;;22.28;59.06;101010.17;105292;1309;22578;-55
2022/10/16 11:12:33;;;;;;;;;14.00;13.00;;;;;22.27;59.00;101008.48;105288;1301;20248;-55
2022/10/16 11:15:00;;;;;;;;;10.50;10.00;;;;;22.26;59.16;101008.41;105261;1285;20361;-56
2022/10/16 11:17:27;;;;;;;;;10.00;9.00;;;;;22.26;59.13;101010.73;105264;1301;19673;-56